sensor_id;sensor_type;location;lat;lon;timestamp;pressure;altitude;pressure_sealevel;temperature;humidity
54882;BME280;40775;51.448;4.742;2022-11-20T00:01:28;101235.22;;;5.01;nan
54882;BME280;40775;51.448;4.742;2022-11-20T00:03:57;101236.25;;;5.04;nan
54882;BME280;40775;51.448;4.742;2022-11-20T00:06:26;101235.97;;;4.98;nan
54882;BME280;40775;51.448;4.742;2022-11-20T00:08:56;101228.16;;;4.98;nan
54882;BME280;40775;51.448;4.742;2022-11-20T00:11:26;101241.09;;;4.96;nan
54882;BME280;40775;51.448;4.742;2022-11-20T00:13:56;101228.97;;;4.97;nan
54882;BME280;40775;51.448;4.742;2022-11-20T00:16:26;101232.31;;;4.94;nan
54882;BME280;40775;51.448;4.742;2022-11-20T00:18:54;101222.28;;;4.84;nan
54882;BME280;40775;51.448;4.742;2022-11-20T00:21:24;101213.88;;;4.90;nan
54882;BME280;40775;51.448;4.742;2022-11-20T00:23:54;101216.31;;;4.87;nan
54882;BME280;40775;51.448;4.742;2022-11-20T00:26:23;101223.09;;;4.83;nan
54882;BME280;40775;51.448;4.742;2022-11-20T00:28:54;101222.28;;;4.84;nan
54882;BME280;40775;51.448;4.742;2022-11-20T00:31:22;101229.78;;;4.78;nan
54882;BME280;40775;51.448;4.742;2022-11-20T00:33:50;101229.69;;;4.77;nan
54882;BME280;40775;51.448;4.742;2022-11-20T00:36:23;101237.22;;;4.71;nan
54882;BME280;40775;51.448;4.742;2022-11-20T00:38:58;101235.78;;;4.77;nan
54882;BME280;40775;51.448;4.742;2022-11-20T00:41:28;101218.41;;;4.76;nan
54882;BME280;40775;51.448;4.742;2022-11-20T00:43:56;101225.25;;;4.74;nan
54882;BME280;40775;51.448;4.742;2022-11-20T00:46:26;101220.63;;;4.69;nan
54882;BME280;40775;51.448;4.742;2022-11-20T00:48:53;101219.81;;;4.70;nan
54882;BME280;40775;51.448;4.742;2022-11-20T00:51:23;101226.06;;;4.73;nan
54882;BME280;40775;51.448;4.742;2022-11-20T00:53:51;101238.19;;;4.73;nan
54882;BME280;40775;51.448;4.742;2022-11-20T00:56:19;101237.28;;;4.72;nan
54882;BME280;40775;51.448;4.742;2022-11-20T00:58:48;101237.56;;;4.78;nan
54882;BME280;40775;51.448;4.742;2022-11-20T01:01:21;101241.97;;;4.79;nan
54882;BME280;40775;51.448;4.742;2022-11-20T01:03:53;101234.38;;;4.84;nan
54882;BME280;40775;51.448;4.742;2022-11-20T01:06:25;101239.72;;;4.87;nan
54882;BME280;40775;51.448;4.742;2022-11-20T01:08:55;101236.97;;;4.84;nan
54882;BME280;40775;51.448;4.742;2022-11-20T01:11:33;101241.66;;;4.73;nan
54882;BME280;40775;51.448;4.742;2022-11-20T01:14:03;101237.13;;;4.69;nan
54882;BME280;40775;51.448;4.742;2022-11-20T01:16:42;101232.97;;;4.73;nan
54882;BME280;40775;51.448;4.742;2022-11-20T01:19:17;101229.25;;;4.85;nan
54882;BME280;40775;51.448;4.742;2022-11-20T01:21:49;101224.66;;;4.80;nan
54882;BME280;40775;51.448;4.742;2022-11-20T01:24:19;101219.16;;;4.74;nan
54882;BME280;40775;51.448;4.742;2022-11-20T01:26:49;101223.16;;;4.85;nan
54882;BME280;40775;51.448;4.742;2022-11-20T01:29:23;101227.53;;;4.86;nan
54882;BME280;40775;51.448;4.742;2022-11-20T01:31:51;101225.00;;;4.87;nan
54882;BME280;40775;51.448;4.742;2022-11-20T01:34:21;101219.00;;;4.88;nan
54882;BME280;40775;51.448;4.742;2022-11-20T01:36:49;101231.13;;;4.88;nan
54882;BME280;40775;51.448;4.742;2022-11-20T01:39:25;101225.41;;;4.77;nan
54882;BME280;40775;51.448;4.742;2022-11-20T01:41:55;101221.09;;;4.78;nan
54882;BME280;40775;51.448;4.742;2022-11-20T01:47:37;101224.34;;;4.74;nan
54882;BME280;40775;51.448;4.742;2022-11-20T01:50:15;101221.09;;;4.78;nan
54882;BME280;40775;51.448;4.742;2022-11-20T01:53:01;101218.69;;;4.82;nan
54882;BME280;40775;51.448;4.742;2022-11-20T01:55:36;101217.28;;;4.89;nan
54882;BME280;40775;51.448;4.742;2022-11-20T01:58:06;101209.78;;;4.77;nan
54882;BME280;40775;51.448;4.742;2022-11-20T02:00:34;101220.25;;;4.79;nan
54882;BME280;40775;51.448;4.742;2022-11-20T02:03:07;101220.19;;;4.77;nan
54882;BME280;40775;51.448;4.742;2022-11-20T02:06:16;101221.59;;;4.71;nan
54882;BME280;40775;51.448;4.742;2022-11-20T02:08:46;101220.84;;;4.73;nan
54882;BME280;40775;51.448;4.742;2022-11-20T02:11:13;101220.19;;;4.77;nan
54882;BME280;40775;51.448;4.742;2022-11-20T02:13:40;101217.53;;;4.76;nan
54882;BME280;40775;51.448;4.742;2022-11-20T02:16:25;101216.78;;;4.78;nan
54882;BME280;40775;51.448;4.742;2022-11-20T02:18:55;101215.44;;;4.69;nan
54882;BME280;40775;51.448;4.742;2022-11-20T02:21:40;101225.03;;;4.70;nan
54882;BME280;40775;51.448;4.742;2022-11-20T02:24:16;101217.78;;;4.64;nan
54882;BME280;40775;51.448;4.742;2022-11-20T02:29:39;101225.44;;;4.61;nan
54882;BME280;40775;51.448;4.742;2022-11-20T02:32:26;101228.91;;;4.61;nan
54882;BME280;40775;51.448;4.742;2022-11-20T02:34:55;101225.59;;;4.64;nan
54882;BME280;40775;51.448;4.742;2022-11-20T02:37:23;101213.81;;;4.71;nan
54882;BME280;40775;51.448;4.742;2022-11-20T02:39:54;101214.81;;;4.56;nan
54882;BME280;40775;51.448;4.742;2022-11-20T02:42:21;101211.38;;;4.57;nan
54882;BME280;40775;51.448;4.742;2022-11-20T02:44:48;101216.66;;;4.59;nan
54882;BME280;40775;51.448;4.742;2022-11-20T02:47:15;101209.91;;;4.62;nan
54882;BME280;40775;51.448;4.742;2022-11-20T02:49:42;101209.72;;;4.76;nan
54882;BME280;40775;51.448;4.742;2022-11-20T02:52:09;101208.28;;;4.64;nan
54882;BME280;40775;51.448;4.742;2022-11-20T02:54:36;101202.25;;;4.65;nan
54882;BME280;40775;51.448;4.742;2022-11-20T02:57:04;101201.75;;;4.73;nan
54882;BME280;40775;51.448;4.742;2022-11-20T02:59:31;101193.75;;;4.68;nan
54882;BME280;40775;51.448;4.742;2022-11-20T03:01:59;101199.75;;;4.67;nan
54882;BME280;40775;51.448;4.742;2022-11-20T03:04:27;101200.41;;;4.63;nan
54882;BME280;40775;51.448;4.742;2022-11-20T03:06:54;101191.78;;;4.64;nan
54882;BME280;40775;51.448;4.742;2022-11-20T03:09:22;101187.47;;;4.64;nan
54882;BME280;40775;51.448;4.742;2022-11-20T03:11:50;101175.28;;;4.63;nan
54882;BME280;40775;51.448;4.742;2022-11-20T03:14:18;101171.06;;;4.65;nan
54882;BME280;40775;51.448;4.742;2022-11-20T03:16:45;101171.06;;;4.65;nan
54882;BME280;40775;51.448;4.742;2022-11-20T03:19:12;101167.66;;;4.67;nan
54882;BME280;40775;51.448;4.742;2022-11-20T03:21:39;101159.03;;;4.68;nan
54882;BME280;40775;51.448;4.742;2022-11-20T03:24:07;101173.09;;;4.71;nan
54882;BME280;40775;51.448;4.742;2022-11-20T03:26:34;101166.66;;;4.64;nan
54882;BME280;40775;51.448;4.742;2022-11-20T03:29:03;101164.06;;;4.64;nan
54882;BME280;40775;51.448;4.742;2022-11-20T03:31:35;101162.63;;;4.70;nan
54882;BME280;40775;51.448;4.742;2022-11-20T03:34:03;101171.44;;;4.73;nan
54882;BME280;40775;51.448;4.742;2022-11-20T03:36:31;101165.06;;;4.67;nan
54882;BME280;40775;51.448;4.742;2022-11-20T03:38:58;101161.66;;;4.68;nan
54882;BME280;40775;51.448;4.742;2022-11-20T03:41:29;101149.75;;;4.73;nan
54882;BME280;40775;51.448;4.742;2022-11-20T03:44:03;101150.78;;;4.76;nan
54882;BME280;40775;51.448;4.742;2022-11-20T03:46:30;101148.19;;;4.76;nan
54882;BME280;40775;51.448;4.742;2022-11-20T03:48:58;101152.28;;;4.71;nan
54882;BME280;40775;51.448;4.742;2022-11-20T03:51:31;101153.47;;;4.78;nan
54882;BME280;40775;51.448;4.742;2022-11-20T03:54:04;101152.50;;;4.76;nan
54882;BME280;40775;51.448;4.742;2022-11-20T03:56:35;101153.47;;;4.78;nan
54882;BME280;40775;51.448;4.742;2022-11-20T03:59:04;101153.03;;;4.69;nan
54882;BME280;40775;51.448;4.742;2022-11-20T04:01:34;101154.00;;;4.71;nan
54882;BME280;40775;51.448;4.742;2022-11-20T04:04:01;101153.53;;;4.79;nan
54882;BME280;40775;51.448;4.742;2022-11-20T04:06:36;101153.00;;;4.86;nan
54882;BME280;40775;51.448;4.742;2022-11-20T04:09:04;101133.75;;;4.83;nan
54882;BME280;40775;51.448;4.742;2022-11-20T04:11:37;101140.59;;;4.81;nan
54882;BME280;40775;51.448;4.742;2022-11-20T04:14:13;101138.00;;;4.81;nan
54882;BME280;40775;51.448;4.742;2022-11-20T04:16:40;101130.81;;;4.75;nan
54882;BME280;40775;51.448;4.742;2022-11-20T04:19:14;101117.19;;;4.81;nan
54882;BME280;40775;51.448;4.742;2022-11-20T04:21:43;101119.94;;;4.84;nan
54882;BME280;40775;51.448;4.742;2022-11-20T04:24:11;101118.75;;;4.77;nan
54882;BME280;40775;51.448;4.742;2022-11-20T04:26:39;101123.75;;;4.73;nan
54882;BME280;40775;51.448;4.742;2022-11-20T04:29:06;101117.88;;;4.77;nan
54882;BME280;40775;51.448;4.742;2022-11-20T04:31:35;101121.97;;;4.72;nan
54882;BME280;40775;51.448;4.742;2022-11-20T04:34:04;101118.56;;;4.73;nan
54882;BME280;40775;51.448;4.742;2022-11-20T04:36:33;101132.22;;;4.69;nan
54882;BME280;40775;51.448;4.742;2022-11-20T04:39:05;101127.91;;;4.69;nan
54882;BME280;40775;51.448;4.742;2022-11-20T04:41:35;101131.63;;;4.74;nan
54882;BME280;40775;51.448;4.742;2022-11-20T04:44:05;101129.63;;;4.69;nan
54882;BME280;40775;51.448;4.742;2022-11-20T04:46:39;101132.38;;;4.72;nan
54882;BME280;40775;51.448;4.742;2022-11-20T04:49:08;101126.06;;;4.67;nan
54882;BME280;40775;51.448;4.742;2022-11-20T04:51:36;101124.25;;;4.65;nan
54882;BME280;40775;51.448;4.742;2022-11-20T04:54:03;101125.06;;;4.64;nan
54882;BME280;40775;51.448;4.742;2022-11-20T04:56:36;101116.16;;;4.59;nan
54882;BME280;40775;51.448;4.742;2022-11-20T04:59:09;101117.13;;;4.61;nan
54882;BME280;40775;51.448;4.742;2022-11-20T05:01:50;101122.25;;;4.60;nan
54882;BME280;40775;51.448;4.742;2022-11-20T05:04:17;101116.97;;;4.58;nan
54882;BME280;40775;51.448;4.742;2022-11-20T05:06:45;101118.59;;;4.56;nan
54882;BME280;40775;51.448;4.742;2022-11-20T05:09:13;101110.97;;;4.59;nan
54882;BME280;40775;51.448;4.742;2022-11-20T05:11:40;101113.25;;;4.53;nan
54882;BME280;40775;51.448;4.742;2022-11-20T05:14:08;101115.88;;;4.53;nan
54882;BME280;40775;51.448;4.742;2022-11-20T05:16:35;101109.78;;;4.53;nan
54882;BME280;40775;51.448;4.742;2022-11-20T05:19:03;101110.38;;;4.47;nan
54882;BME280;40775;51.448;4.742;2022-11-20T05:21:31;101115.28;;;4.41;nan
54882;BME280;40775;51.448;4.742;2022-11-20T05:23:59;101116.66;;;4.34;nan
54882;BME280;40775;51.448;4.742;2022-11-20T05:26:26;101120.81;;;4.31;nan
54882;BME280;40775;51.448;4.742;2022-11-20T05:28:54;101114.06;;;4.34;nan
54882;BME280;40775;51.448;4.742;2022-11-20T05:31:23;101125.44;;;4.37;nan
54882;BME280;40775;51.448;4.742;2022-11-20T05:33:54;101110.66;;;4.35;nan
54882;BME280;40775;51.448;4.742;2022-11-20T05:36:22;101124.16;;;4.28;nan
54882;BME280;40775;51.448;4.742;2022-11-20T05:38:50;101123.84;;;4.22;nan
54882;BME280;40775;51.448;4.742;2022-11-20T05:41:20;101133.38;;;4.22;nan
54882;BME280;40775;51.448;4.742;2022-11-20T05:43:50;101133.22;;;4.19;nan
54882;BME280;40775;51.448;4.742;2022-11-20T05:46:21;101132.63;;;4.24;nan
54882;BME280;40775;51.448;4.742;2022-11-20T05:48:54;101118.81;;;4.25;nan
54882;BME280;40775;51.448;4.742;2022-11-20T05:51:22;101110.66;;;4.18;nan
54882;BME280;40775;51.448;4.742;2022-11-20T05:53:50;101119.34;;;4.02;nan
54882;BME280;40775;51.448;4.742;2022-11-20T05:56:21;101103.78;;;4.02;nan
54882;BME280;40775;51.448;4.742;2022-11-20T05:58:51;101111.34;;;3.97;nan
54882;BME280;40775;51.448;4.742;2022-11-20T06:01:20;101100.66;;;3.91;nan
54882;BME280;40775;51.448;4.742;2022-11-20T06:03:47;101102.19;;;3.88;nan
54882;BME280;40775;51.448;4.742;2022-11-20T06:06:18;101082.31;;;3.88;nan
54882;BME280;40775;51.448;4.742;2022-11-20T06:08:47;101086.47;;;3.85;nan
54882;BME280;40775;51.448;4.742;2022-11-20T06:11:16;101093.19;;;3.81;nan
54882;BME280;40775;51.448;4.742;2022-11-20T06:13:44;101084.25;;;3.76;nan
54882;BME280;40775;51.448;4.742;2022-11-20T06:16:14;101084.41;;;3.79;nan
54882;BME280;40775;51.448;4.742;2022-11-20T06:18:45;101083.16;;;3.71;nan
54882;BME280;40775;51.448;4.742;2022-11-20T06:21:14;101076.31;;;3.73;nan
54882;BME280;40775;51.448;4.742;2022-11-20T06:23:43;101074.31;;;3.67;nan
54882;BME280;40775;51.448;4.742;2022-11-20T06:26:15;101071.22;;;3.75;nan
54882;BME280;40775;51.448;4.742;2022-11-20T06:28:43;101067.56;;;3.71;nan
54882;BME280;40775;51.448;4.742;2022-11-20T06:31:12;101071.34;;;3.78;nan
54882;BME280;40775;51.448;4.742;2022-11-20T06:33:41;101079.13;;;3.60;nan
54882;BME280;40775;51.448;4.742;2022-11-20T06:36:11;101078.31;;;3.61;nan
54882;BME280;40775;51.448;4.742;2022-11-20T06:38:39;101074.38;;;3.69;nan
54882;BME280;40775;51.448;4.742;2022-11-20T06:41:11;101078.69;;;3.68;nan
54882;BME280;40775;51.448;4.742;2022-11-20T06:43:40;101070.91;;;3.68;nan
54882;BME280;40775;51.448;4.742;2022-11-20T06:46:08;101084.53;;;3.64;nan
54882;BME280;40775;51.448;4.742;2022-11-20T06:48:36;101068.00;;;3.62;nan
54882;BME280;40775;51.448;4.742;2022-11-20T06:51:05;101073.25;;;3.64;nan
54882;BME280;40775;51.448;4.742;2022-11-20T06:53:33;101077.94;;;3.71;nan
54882;BME280;40775;51.448;4.742;2022-11-20T06:56:01;101075.19;;;3.68;nan
54882;BME280;40775;51.448;4.742;2022-11-20T06:58:31;101063.84;;;3.66;nan
54882;BME280;40775;51.448;4.742;2022-11-20T07:01:04;101072.91;;;3.74;nan
54882;BME280;40775;51.448;4.742;2022-11-20T07:03:31;101063.69;;;3.63;nan
54882;BME280;40775;51.448;4.742;2022-11-20T07:06:00;101071.78;;;3.69;nan
54882;BME280;40775;51.448;4.742;2022-11-20T07:08:28;101073.56;;;3.70;nan
54882;BME280;40775;51.448;4.742;2022-11-20T07:11:00;101071.72;;;3.67;nan
54882;BME280;40775;51.448;4.742;2022-11-20T07:13:29;101061.41;;;3.69;nan
54882;BME280;40775;51.448;4.742;2022-11-20T07:16:04;101070.97;;;3.70;nan
54882;BME280;40775;51.448;4.742;2022-11-20T07:18:32;101059.78;;;3.71;nan
54882;BME280;40775;51.448;4.742;2022-11-20T07:21:03;101059.13;;;3.75;nan
54882;BME280;40775;51.448;4.742;2022-11-20T07:23:32;101060.91;;;3.76;nan
54882;BME280;40775;51.448;4.742;2022-11-20T07:26:07;101063.72;;;3.81;nan
54882;BME280;40775;51.448;4.742;2022-11-20T07:28:35;101068.69;;;3.76;nan
54882;BME280;40775;51.448;4.742;2022-11-20T07:31:03;101066.41;;;3.82;nan
54882;BME280;40775;51.448;4.742;2022-11-20T07:33:31;101077.44;;;3.78;nan
54882;BME280;40775;51.448;4.742;2022-11-20T07:36:00;101087.84;;;3.78;nan
54882;BME280;40775;51.448;4.742;2022-11-20T07:38:27;101086.75;;;3.91;nan
54882;BME280;40775;51.448;4.742;2022-11-20T07:40:58;101089.50;;;3.94;nan
54882;BME280;40775;51.448;4.742;2022-11-20T07:43:28;101085.94;;;3.92;nan
54882;BME280;40775;51.448;4.742;2022-11-20T07:45:59;101085.22;;;3.94;nan
54882;BME280;40775;51.448;4.742;2022-11-20T07:48:26;101087.81;;;3.94;nan
54882;BME280;40775;51.448;4.742;2022-11-20T07:50:55;101086.09;;;3.95;nan
54882;BME280;40775;51.448;4.742;2022-11-20T07:53:24;101084.41;;;3.95;nan
54882;BME280;40775;51.448;4.742;2022-11-20T07:55:54;101081.34;;;4.04;nan
54882;BME280;40775;51.448;4.742;2022-11-20T07:58:21;101088.13;;;4.00;nan
54882;BME280;40775;51.448;4.742;2022-11-20T08:00:48;101083.88;;;4.02;nan
54882;BME280;40775;51.448;4.742;2022-11-20T08:03:17;101082.41;;;4.08;nan
54882;BME280;40775;51.448;4.742;2022-11-20T08:05:53;101083.28;;;4.08;nan
54882;BME280;40775;51.448;4.742;2022-11-20T08:08:28;101085.25;;;4.12;nan
54882;BME280;40775;51.448;4.742;2022-11-20T08:11:07;101091.41;;;4.14;nan
54882;BME280;40775;51.448;4.742;2022-11-20T08:13:58;101097.00;;;4.22;nan
54882;BME280;40775;51.448;4.742;2022-11-20T08:16:59;101091.94;;;4.25;nan
54882;BME280;40775;51.448;4.742;2022-11-20T08:19:38;101085.41;;;4.33;nan
54882;BME280;40775;51.448;4.742;2022-11-20T08:22:08;101081.84;;;4.31;nan
54882;BME280;40775;51.448;4.742;2022-11-20T08:24:35;101083.75;;;4.35;nan
54882;BME280;40775;51.448;4.742;2022-11-20T08:27:02;101082.59;;;4.46;nan
54882;BME280;40775;51.448;4.742;2022-11-20T08:29:29;101078.38;;;4.48;nan
54882;BME280;40775;51.448;4.742;2022-11-20T08:31:56;101076.94;;;4.55;nan
54882;BME280;40775;51.448;4.742;2022-11-20T08:34:23;101083.19;;;4.58;nan
54882;BME280;40775;51.448;4.742;2022-11-20T08:36:50;101073.59;;;4.57;nan
54882;BME280;40775;51.448;4.742;2022-11-20T08:39:18;101080.72;;;4.61;nan
54882;BME280;40775;51.448;4.742;2022-11-20T08:41:47;101075.16;;;4.72;nan
54882;BME280;40775;51.448;4.742;2022-11-20T08:44:14;101070.25;;;4.78;nan
54882;BME280;40775;51.448;4.742;2022-11-20T08:46:42;101068.47;;;4.77;nan
54882;BME280;40775;51.448;4.742;2022-11-20T08:49:12;101066.81;;;4.79;nan
54882;BME280;40775;51.448;4.742;2022-11-20T08:51:40;101063.59;;;4.84;nan
54882;BME280;40775;51.448;4.742;2022-11-20T08:54:07;101059.44;;;4.88;nan
54882;BME280;40775;51.448;4.742;2022-11-20T08:56:35;101057.16;;;4.94;nan
54882;BME280;40775;51.448;4.742;2022-11-20T08:59:02;101052.97;;;4.97;nan
54882;BME280;40775;51.448;4.742;2022-11-20T09:01:49;101036.41;;;4.95;nan
54882;BME280;40775;51.448;4.742;2022-11-20T09:04:16;101026.19;;;5.00;nan
54882;BME280;40775;51.448;4.742;2022-11-20T09:06:43;101023.88;;;5.06;nan
54882;BME280;40775;51.448;4.742;2022-11-20T09:09:11;101022.91;;;5.04;nan
54882;BME280;40775;51.448;4.742;2022-11-20T09:11:38;101020.38;;;5.06;nan
54882;BME280;40775;51.448;4.742;2022-11-20T09:14:05;101025.28;;;5.19;nan
54882;BME280;40775;51.448;4.742;2022-11-20T09:16:32;101018.59;;;5.24;nan
54882;BME280;40775;51.448;4.742;2022-11-20T09:18:59;101000.09;;;5.18;nan
54882;BME280;40775;51.448;4.742;2022-11-20T09:21:46;100997.84;;;5.25;nan
54882;BME280;40775;51.448;4.742;2022-11-20T09:24:13;100998.75;;;5.26;nan
54882;BME280;40775;51.448;4.742;2022-11-20T09:26:40;100985.34;;;5.38;nan
54882;BME280;40775;51.448;4.742;2022-11-20T09:29:07;100990.69;;;5.41;nan
54882;BME280;40775;51.448;4.742;2022-11-20T09:31:34;100991.66;;;5.43;nan
54882;BME280;40775;51.448;4.742;2022-11-20T09:34:02;100993.44;;;5.44;nan
54882;BME280;40775;51.448;4.742;2022-11-20T09:36:29;100991.66;;;5.43;nan
54882;BME280;40775;51.448;4.742;2022-11-20T09:38:56;100982.25;;;5.46;nan
54882;BME280;40775;51.448;4.742;2022-11-20T09:44:37;100966.09;;;5.53;nan
54882;BME280;40775;51.448;4.742;2022-11-20T09:50:23;100970.97;;;5.67;nan
54882;BME280;40775;51.448;4.742;2022-11-20T09:55:36;100963.56;;;5.76;nan
54882;BME280;40775;51.448;4.742;2022-11-20T09:58:19;100954.41;;;5.85;nan
54882;BME280;40775;51.448;4.742;2022-11-20T10:00:53;100951.75;;;5.84;nan
54882;BME280;40775;51.448;4.742;2022-11-20T10:07:07;100946.03;;;5.93;nan
54882;BME280;40775;51.448;4.742;2022-11-20T10:09:59;100948.69;;;5.94;nan
54882;BME280;40775;51.448;4.742;2022-11-20T10:16:44;100934.47;;;6.07;nan
54882;BME280;40775;51.448;4.742;2022-11-20T10:22:03;100938.84;;;6.08;nan
54882;BME280;40775;51.448;4.742;2022-11-20T10:24:56;100941.56;;;6.11;nan
54882;BME280;40775;51.448;4.742;2022-11-20T10:28:08;100931.44;;;6.18;nan
54882;BME280;40775;51.448;4.742;2022-11-20T10:30:44;100918.75;;;6.28;nan
54882;BME280;40775;51.448;4.742;2022-11-20T10:33:17;100911.59;;;6.22;nan
54882;BME280;40775;51.448;4.742;2022-11-20T10:35:52;100901.44;;;6.30;nan
